createdAt,value
2023-05-20T00:01:24.030Z,14.84
2023-05-20T00:02:23.990Z,14.89
2023-05-20T00:04:28.499Z,14.80
2023-05-20T00:05:27.997Z,14.75
2023-05-20T00:07:32.049Z,14.75
2023-05-20T00:08:32.019Z,14.80
2023-05-20T00:10:25.521Z,14.77
2023-05-20T00:11:25.171Z,14.80
2023-05-20T00:13:29.218Z,14.80
2023-05-20T00:14:29.196Z,14.78
2023-05-20T00:16:33.821Z,14.75
2023-05-20T00:17:33.255Z,14.75
2023-05-20T00:19:37.273Z,14.69
2023-05-20T00:20:37.259Z,14.70
2023-05-20T00:22:41.890Z,14.77
2023-05-20T00:23:41.298Z,14.70
2023-05-20T00:25:45.329Z,14.68
2023-05-20T00:26:45.316Z,14.72
2023-05-20T00:28:38.821Z,14.72
2023-05-20T00:29:38.273Z,14.70
2023-05-20T00:31:31.466Z,14.68
2023-05-20T00:32:31.429Z,14.69
2023-05-20T00:34:36.453Z,14.70
2023-05-20T00:35:35.736Z,14.72
2023-05-20T00:37:39.472Z,14.64
2023-05-20T00:38:39.473Z,14.64
2023-05-20T00:40:43.982Z,14.64
2023-05-20T00:41:43.488Z,14.62
2023-05-20T00:43:47.544Z,14.64
2023-05-20T00:44:47.513Z,14.69
2023-05-20T00:46:52.034Z,14.61
2023-05-20T00:47:51.608Z,14.57
2023-05-20T00:49:55.596Z,14.57
2023-05-20T00:50:55.586Z,14.55
2023-05-20T00:51:55.598Z,14.57
2023-05-20T00:52:55.626Z,14.50
2023-05-20T00:53:55.647Z,14.57
2023-05-20T00:54:55.670Z,14.54
2023-05-20T00:55:55.698Z,14.55
2023-05-20T00:56:55.737Z,14.47
2023-05-20T00:57:55.755Z,14.52
2023-05-20T00:58:55.769Z,14.43
2023-05-20T00:59:55.794Z,14.42
2023-05-20T01:00:55.854Z,14.46
2023-05-20T01:01:55.919Z,14.40
2023-05-20T01:02:55.984Z,14.43
2023-05-20T01:03:55.905Z,14.43
2023-05-20T01:04:55.915Z,14.45
2023-05-20T01:05:55.930Z,14.43
2023-05-20T01:06:55.961Z,14.39
2023-05-20T01:07:55.994Z,14.45
2023-05-20T01:08:55.997Z,14.40
2023-05-20T01:09:56.060Z,14.43
2023-05-20T01:10:56.054Z,14.40
2023-05-20T01:11:56.079Z,14.35
2023-05-20T01:12:56.093Z,14.39
2023-05-20T01:13:56.123Z,14.29
2023-05-20T01:14:56.142Z,14.43
2023-05-20T01:15:56.182Z,14.33
2023-05-20T01:16:56.184Z,14.37
2023-05-20T01:17:56.240Z,14.43
2023-05-20T01:18:56.256Z,14.35
2023-05-20T01:19:56.258Z,14.40
2023-05-20T01:20:56.281Z,14.39
2023-05-20T01:21:56.315Z,14.27
2023-05-20T01:22:56.334Z,14.35
2023-05-20T01:23:56.352Z,14.22
2023-05-20T01:24:56.374Z,14.32
2023-05-20T01:25:56.393Z,14.28
2023-05-20T01:26:56.422Z,14.24
2023-05-20T01:27:56.453Z,14.32
2023-05-20T01:28:56.471Z,14.39
2023-05-20T01:29:56.493Z,14.29
2023-05-20T01:30:56.569Z,14.27
2023-05-20T01:31:56.586Z,14.28
2023-05-20T01:32:56.599Z,14.18
2023-05-20T01:33:56.580Z,14.22
2023-05-20T01:34:56.633Z,14.18
2023-05-20T01:35:56.635Z,14.28
2023-05-20T01:36:56.664Z,14.21
2023-05-20T01:37:56.678Z,14.12
2023-05-20T01:38:56.705Z,14.24
2023-05-20T01:39:56.747Z,14.15
2023-05-20T01:40:56.753Z,14.15
2023-05-20T01:41:56.775Z,14.20
2023-05-20T01:42:56.799Z,14.15
2023-05-20T01:43:56.825Z,14.09
2023-05-20T01:44:56.850Z,14.14
2023-05-20T01:45:56.874Z,14.06
2023-05-20T01:46:57.112Z,14.10
2023-05-20T01:47:56.961Z,14.10
2023-05-20T01:48:56.965Z,14.18
2023-05-20T01:49:56.965Z,14.07
2023-05-20T01:50:56.994Z,14.09
2023-05-20T01:51:57.011Z,14.14
2023-05-20T01:52:57.033Z,14.10
2023-05-20T01:53:57.060Z,14.06
2023-05-20T01:54:57.089Z,14.04
2023-05-20T01:55:57.103Z,14.10
2023-05-20T01:56:57.130Z,14.04
2023-05-20T01:57:57.156Z,13.97
2023-05-20T01:58:57.175Z,14.06
2023-05-20T01:59:57.198Z,13.99
2023-05-20T02:00:57.262Z,13.97
2023-05-20T02:01:57.289Z,14.03
2023-05-20T02:02:57.289Z,14.02
2023-05-20T02:03:57.292Z,13.88
2023-05-20T02:04:57.308Z,13.92
2023-05-20T02:05:57.374Z,13.92
2023-05-20T02:06:57.365Z,13.97
2023-05-20T02:07:57.384Z,13.92
2023-05-20T02:08:57.406Z,13.84
2023-05-20T02:09:57.434Z,13.89
2023-05-20T02:10:57.450Z,13.87
2023-05-20T02:11:57.476Z,13.81
2023-05-20T02:12:57.500Z,13.82
2023-05-20T02:13:57.535Z,13.75
2023-05-20T02:14:57.553Z,13.77
2023-05-20T02:15:57.594Z,13.81
2023-05-20T02:16:57.802Z,13.77
2023-05-20T02:17:57.618Z,13.79
2023-05-20T02:18:57.678Z,13.79
2023-05-20T02:19:57.667Z,13.79
2023-05-20T02:20:57.688Z,13.81
2023-05-20T02:21:57.714Z,13.75
2023-05-20T02:22:57.741Z,13.75
2023-05-20T02:23:57.767Z,13.78
2023-05-20T02:24:57.787Z,13.75
2023-05-20T02:25:57.817Z,13.81
2023-05-20T02:26:57.838Z,13.75
2023-05-20T02:27:57.864Z,13.73
2023-05-20T02:28:57.879Z,13.77
2023-05-20T02:29:57.909Z,13.75
2023-05-20T02:30:57.918Z,13.78
2023-05-20T02:31:57.948Z,13.77
2023-05-20T02:32:58.018Z,13.75
2023-05-20T02:33:58.083Z,13.75
2023-05-20T02:34:58.018Z,13.71
2023-05-20T02:35:58.040Z,13.69
2023-05-20T02:36:58.067Z,13.71
2023-05-20T02:37:58.085Z,13.60
2023-05-20T02:38:58.111Z,13.67
2023-05-20T02:39:58.140Z,13.60
2023-05-20T02:40:58.162Z,13.63
2023-05-20T02:41:58.187Z,13.59
2023-05-20T02:42:58.203Z,13.57
2023-05-20T02:43:58.222Z,13.62
2023-05-20T02:44:58.255Z,13.59
2023-05-20T02:45:58.310Z,13.57
2023-05-20T02:46:58.292Z,13.55
2023-05-20T02:47:58.362Z,13.54
2023-05-20T02:48:58.342Z,13.42
2023-05-20T02:49:58.366Z,13.51
2023-05-20T02:50:58.382Z,13.44
2023-05-20T02:51:58.413Z,13.44
2023-05-20T02:52:58.433Z,13.44
2023-05-20T02:53:58.465Z,13.42
2023-05-20T02:54:58.482Z,13.44
2023-05-20T02:55:58.504Z,13.32
2023-05-20T02:56:58.523Z,13.30
2023-05-20T02:57:58.675Z,13.28
2023-05-20T02:58:58.570Z,13.33
2023-05-20T02:59:58.596Z,13.39
2023-05-20T03:00:58.692Z,13.22
2023-05-20T03:01:58.751Z,13.19
2023-05-20T03:02:58.779Z,13.19
2023-05-20T03:03:58.706Z,13.14
2023-05-20T03:04:58.712Z,13.14
2023-05-20T03:05:58.743Z,13.05
2023-05-20T03:06:58.768Z,13.10
2023-05-20T03:07:58.781Z,13.00
2023-05-20T03:08:58.825Z,13.04
2023-05-20T03:09:58.849Z,13.04
2023-05-20T03:10:58.851Z,13.08
2023-05-20T03:11:58.871Z,12.93
2023-05-20T03:12:59.050Z,12.93
2023-05-20T03:13:58.924Z,13.01
2023-05-20T03:14:58.940Z,13.03
2023-05-20T03:15:59.002Z,12.90
2023-05-20T03:16:58.981Z,12.92
2023-05-20T03:17:59.161Z,12.92
2023-05-20T03:18:59.086Z,12.90
2023-05-20T03:19:59.082Z,12.90
2023-05-20T03:20:59.082Z,12.86
2023-05-20T03:21:59.099Z,12.92
2023-05-20T03:22:59.117Z,12.86
2023-05-20T03:23:59.146Z,12.90
2023-05-20T03:24:59.173Z,12.93
2023-05-20T03:25:59.188Z,12.87
2023-05-20T03:26:59.220Z,12.87
2023-05-20T03:27:59.231Z,12.87
2023-05-20T03:28:59.256Z,12.90
2023-05-20T03:29:59.276Z,12.87
2023-05-20T03:30:59.315Z,12.93
2023-05-20T03:31:59.325Z,12.86
2023-05-20T03:32:59.485Z,12.87
2023-05-20T03:33:59.376Z,12.92
2023-05-20T03:34:59.395Z,12.96
2023-05-20T03:35:59.422Z,12.96
2023-05-20T03:36:59.440Z,12.93
2023-05-20T03:37:59.491Z,13.00
2023-05-20T03:38:59.489Z,12.90
2023-05-20T03:39:59.503Z,12.86
2023-05-20T03:40:59.534Z,12.90
2023-05-20T03:41:59.555Z,13.03
2023-05-20T03:42:59.575Z,12.89
2023-05-20T03:43:59.605Z,13.05
2023-05-20T03:44:59.623Z,13.03
2023-05-20T03:45:59.644Z,13.05
2023-05-20T03:46:59.740Z,13.05
2023-05-20T03:47:59.812Z,13.07
2023-05-20T03:48:59.713Z,13.07
2023-05-20T03:49:59.736Z,13.07
2023-05-20T03:50:59.756Z,13.00
2023-05-20T03:51:59.788Z,13.07
2023-05-20T03:52:59.818Z,13.11
2023-05-20T03:53:59.826Z,13.12
2023-05-20T03:54:59.858Z,13.12
2023-05-20T03:55:59.867Z,13.12
2023-05-20T03:56:59.891Z,13.17
2023-05-20T03:58:00.028Z,13.23
2023-05-20T03:58:59.941Z,13.12
2023-05-20T03:59:59.966Z,13.12
2023-05-20T04:00:59.985Z,13.20
2023-05-20T04:02:00.057Z,13.17
2023-05-20T04:03:00.093Z,13.30
2023-05-20T04:04:00.162Z,13.19
2023-05-20T04:05:00.156Z,13.33
2023-05-20T04:06:00.130Z,13.30
2023-05-20T04:07:00.131Z,13.41
2023-05-20T04:08:00.144Z,13.39
2023-05-20T04:09:00.171Z,13.49
2023-05-20T04:10:00.216Z,13.60
2023-05-20T04:11:00.227Z,13.54
2023-05-20T04:12:00.258Z,13.69
2023-05-20T04:13:00.275Z,13.79
2023-05-20T04:14:00.399Z,13.92
2023-05-20T04:15:00.314Z,14.17
2023-05-20T04:16:00.330Z,14.35
2023-05-20T04:17:00.510Z,14.54
2023-05-20T04:18:00.396Z,14.68
2023-05-20T04:19:00.415Z,14.68
2023-05-20T04:20:00.478Z,14.83
2023-05-20T04:21:00.446Z,15.09
2023-05-20T04:22:00.468Z,15.36
2023-05-20T04:23:00.506Z,15.39
2023-05-20T04:24:00.550Z,15.59
2023-05-20T04:25:00.546Z,15.67
2023-05-20T04:26:00.571Z,15.78
2023-05-20T04:27:00.591Z,15.86
2023-05-20T04:28:00.634Z,15.78
2023-05-20T04:29:00.635Z,15.84
2023-05-20T04:30:00.673Z,16.04
2023-05-20T04:31:00.720Z,16.31
2023-05-20T04:32:00.765Z,16.49
2023-05-20T04:33:00.807Z,16.60
2023-05-20T04:34:00.796Z,16.64
2023-05-20T04:35:00.785Z,16.79
2023-05-20T04:36:00.824Z,16.82
2023-05-20T04:37:00.847Z,16.64
2023-05-20T04:38:00.867Z,16.75
2023-05-20T04:39:00.880Z,16.63
2023-05-20T04:40:00.923Z,16.63
2023-05-20T04:41:00.953Z,16.57
2023-05-20T04:42:00.962Z,16.63
2023-05-20T04:43:00.988Z,16.67
2023-05-20T04:44:01.027Z,16.68
2023-05-20T04:45:01.034Z,16.79
2023-05-20T04:46:01.124Z,16.82
2023-05-20T04:47:01.085Z,17.00
2023-05-20T04:48:01.167Z,17.04
2023-05-20T04:49:01.135Z,17.11
2023-05-20T04:50:01.202Z,17.08
2023-05-20T04:51:01.187Z,17.08
2023-05-20T04:52:01.220Z,17.21
2023-05-20T04:53:01.244Z,17.38
2023-05-20T04:54:01.265Z,17.41
2023-05-20T04:55:01.292Z,17.34
2023-05-20T04:56:01.335Z,17.40
2023-05-20T04:57:01.341Z,17.44
2023-05-20T04:58:01.364Z,17.58
2023-05-20T04:59:01.384Z,17.64
2023-05-20T05:00:01.421Z,17.77
2023-05-20T05:01:01.579Z,17.90
2023-05-20T05:02:01.526Z,18.02
2023-05-20T05:03:01.583Z,18.10
2023-05-20T05:04:01.534Z,18.08
2023-05-20T05:05:01.629Z,18.05
2023-05-20T05:06:01.570Z,18.12
2023-05-20T05:07:01.604Z,18.23
2023-05-20T05:08:01.628Z,18.25
2023-05-20T05:09:01.676Z,18.26
2023-05-20T05:10:01.786Z,18.42
2023-05-20T05:11:01.708Z,18.57
2023-05-20T05:12:01.738Z,18.58
2023-05-20T05:13:01.765Z,18.65
2023-05-20T05:14:01.798Z,18.63
2023-05-20T05:15:01.813Z,18.88
2023-05-20T05:16:01.872Z,18.91
2023-05-20T05:17:01.873Z,18.91
2023-05-20T05:18:01.972Z,18.88
2023-05-20T05:19:01.968Z,18.80
2023-05-20T05:20:01.962Z,18.88
2023-05-20T05:21:01.983Z,18.87
2023-05-20T05:22:02.010Z,18.82
2023-05-20T05:23:02.038Z,18.78
2023-05-20T05:24:02.063Z,18.63
2023-05-20T05:25:02.088Z,18.54
2023-05-20T05:26:02.115Z,18.44
2023-05-20T05:27:02.150Z,18.35
2023-05-20T05:28:02.174Z,18.21
2023-05-20T05:29:02.205Z,18.12
2023-05-20T05:30:02.234Z,18.07
2023-05-20T05:31:02.306Z,18.03
2023-05-20T05:32:02.338Z,18.11
2023-05-20T05:33:02.413Z,18.10
2023-05-20T05:34:02.353Z,18.03
2023-05-20T05:35:02.373Z,18.14
2023-05-20T05:36:02.389Z,18.00
2023-05-20T05:37:02.444Z,18.12
2023-05-20T05:38:02.453Z,18.12
2023-05-20T05:39:02.477Z,17.92
2023-05-20T05:40:02.517Z,17.75
2023-05-20T05:41:02.537Z,17.52
2023-05-20T05:42:02.561Z,17.26
2023-05-20T05:43:02.587Z,17.15
2023-05-20T05:44:02.613Z,17.07
2023-05-20T05:45:02.636Z,17.04
2023-05-20T05:46:02.665Z,16.88
2023-05-20T05:47:02.746Z,16.86
2023-05-20T05:48:02.755Z,16.73
2023-05-20T05:49:02.778Z,16.63
2023-05-20T05:50:02.792Z,16.52
2023-05-20T05:51:02.810Z,16.46
2023-05-20T05:52:02.829Z,16.30
2023-05-20T05:53:02.855Z,16.20
2023-05-20T05:54:02.893Z,16.12
2023-05-20T05:55:02.931Z,16.04
2023-05-20T05:56:02.931Z,16.02
2023-05-20T05:57:04.512Z,16.07
2023-05-20T05:58:02.978Z,16.34
2023-05-20T05:59:03.010Z,16.45
2023-05-20T06:00:03.031Z,16.66
2023-05-20T06:01:03.090Z,17.08
2023-05-20T06:02:03.159Z,17.21
2023-05-20T06:03:03.147Z,17.43
2023-05-20T06:04:03.289Z,17.58
2023-05-20T06:05:03.176Z,17.79
2023-05-20T06:06:03.208Z,18.02
2023-05-20T06:07:03.227Z,17.99
2023-05-20T06:08:03.256Z,18.03
2023-05-20T06:09:03.282Z,17.84
2023-05-20T06:10:03.300Z,17.81
2023-05-20T06:11:03.330Z,17.58
2023-05-20T06:12:03.363Z,17.36
2023-05-20T06:13:03.396Z,17.16
2023-05-20T06:14:03.425Z,17.00
2023-05-20T06:15:03.447Z,17.04
2023-05-20T06:16:03.466Z,16.86
2023-05-20T06:17:03.604Z,16.78
2023-05-20T06:18:03.545Z,16.66
2023-05-20T06:19:03.991Z,16.57
2023-05-20T06:20:03.574Z,16.61
2023-05-20T06:21:03.605Z,16.46
2023-05-20T06:22:03.630Z,16.34
2023-05-20T06:23:03.660Z,16.11
2023-05-20T06:24:03.679Z,15.96
2023-05-20T06:25:03.703Z,15.89
2023-05-20T06:26:03.729Z,15.82
2023-05-20T06:27:03.759Z,15.87
2023-05-20T06:28:03.795Z,15.82
2023-05-20T06:29:03.822Z,15.74
2023-05-20T06:30:03.847Z,15.72
2023-05-20T06:31:03.923Z,15.80
2023-05-20T06:32:03.894Z,15.76
2023-05-20T06:33:03.957Z,15.71
2023-05-20T06:34:03.942Z,15.82
2023-05-20T06:35:03.972Z,15.74
2023-05-20T06:36:03.997Z,15.82
2023-05-20T06:37:04.018Z,15.75
2023-05-20T06:38:04.123Z,15.90
2023-05-20T06:39:04.092Z,15.89
2023-05-20T06:40:04.098Z,15.89
2023-05-20T06:41:04.130Z,15.94
2023-05-20T06:42:04.152Z,15.89
2023-05-20T06:43:04.174Z,15.86
2023-05-20T06:44:04.205Z,15.93
2023-05-20T06:45:04.229Z,15.94
2023-05-20T06:46:04.323Z,15.94
2023-05-20T06:47:04.292Z,15.97
2023-05-20T06:48:04.368Z,15.97
2023-05-20T06:49:04.335Z,15.90
2023-05-20T06:50:04.355Z,15.86
2023-05-20T06:51:04.384Z,15.90
2023-05-20T06:52:04.406Z,15.92
2023-05-20T06:53:04.459Z,15.76
2023-05-20T06:54:04.460Z,15.90
2023-05-20T06:55:04.646Z,15.97
2023-05-20T06:56:04.521Z,16.02
2023-05-20T06:57:04.548Z,16.14
2023-05-20T06:58:04.570Z,16.11
2023-05-20T06:59:04.589Z,16.20
2023-05-20T07:00:04.622Z,16.15
2023-05-20T07:01:04.647Z,16.27
2023-05-20T07:02:04.787Z,16.27
2023-05-20T07:03:04.751Z,16.21
2023-05-20T07:04:04.775Z,16.14
2023-05-20T07:05:04.747Z,16.11
2023-05-20T07:06:04.774Z,16.07
2023-05-20T07:07:04.808Z,16.04
2023-05-20T07:08:04.822Z,16.17
2023-05-20T07:09:04.864Z,16.12
2023-05-20T07:10:04.885Z,16.11
2023-05-20T07:11:04.903Z,16.17
2023-05-20T07:12:04.934Z,16.17
2023-05-20T07:13:04.966Z,16.21
2023-05-20T07:14:04.991Z,16.17
2023-05-20T07:15:05.025Z,16.17
2023-05-20T07:16:05.126Z,16.15
2023-05-20T07:17:05.061Z,16.28
2023-05-20T07:18:05.146Z,16.30
2023-05-20T07:19:05.126Z,16.41
2023-05-20T07:20:05.145Z,16.28
2023-05-20T07:21:05.170Z,16.41
2023-05-20T07:22:05.193Z,16.53
2023-05-20T07:23:05.215Z,16.45
2023-05-20T07:24:05.255Z,16.61
2023-05-20T07:25:05.270Z,16.61
2023-05-20T07:26:05.290Z,16.70
2023-05-20T07:27:05.325Z,16.73
2023-05-20T07:28:05.350Z,16.85
2023-05-20T07:29:05.377Z,16.73
2023-05-20T07:30:05.404Z,16.78
2023-05-20T07:31:05.443Z,16.81
2023-05-20T07:32:05.573Z,16.85
2023-05-20T07:33:05.546Z,16.88
2023-05-20T07:34:05.507Z,16.98
2023-05-20T07:35:05.535Z,16.91
2023-05-20T07:36:05.559Z,16.93
2023-05-20T07:37:05.588Z,16.83
2023-05-20T07:38:05.613Z,16.79
2023-05-20T07:39:09.497Z,16.75
2023-05-20T07:40:05.671Z,16.64
2023-05-20T07:41:05.699Z,16.73
2023-05-20T07:42:05.718Z,16.64
2023-05-20T07:43:05.863Z,16.64
2023-05-20T07:44:05.779Z,16.66
2023-05-20T07:45:05.800Z,16.58
2023-05-20T07:46:05.877Z,16.68
2023-05-20T07:47:05.853Z,16.75
2023-05-20T07:48:05.922Z,16.64
2023-05-20T07:49:05.923Z,16.49
2023-05-20T07:50:05.935Z,16.46
2023-05-20T07:51:05.960Z,16.50
2023-05-20T07:52:05.996Z,16.58
2023-05-20T07:53:06.018Z,16.57
2023-05-20T07:54:06.037Z,16.63
2023-05-20T07:55:06.071Z,16.75
2023-05-20T07:56:06.095Z,16.78
2023-05-20T07:57:06.122Z,16.71
2023-05-20T07:58:06.146Z,16.79
2023-05-20T07:59:06.178Z,16.86
2023-05-20T08:00:06.198Z,16.83
2023-05-20T08:01:06.226Z,16.97
2023-05-20T08:02:06.296Z,17.00
2023-05-20T08:03:06.404Z,17.12
2023-05-20T08:04:06.388Z,17.21
2023-05-20T08:05:06.339Z,17.25
2023-05-20T08:06:06.375Z,17.40
2023-05-20T08:07:06.390Z,17.64
2023-05-20T08:08:06.419Z,17.75
2023-05-20T08:09:06.444Z,17.74
2023-05-20T08:10:06.495Z,17.77
2023-05-20T08:11:06.501Z,17.81
2023-05-20T08:12:06.520Z,17.96
2023-05-20T08:13:06.556Z,17.92
2023-05-20T08:14:06.574Z,17.89
2023-05-20T08:15:06.608Z,17.93
2023-05-20T08:16:06.652Z,17.95
2023-05-20T08:17:06.681Z,17.99
2023-05-20T08:18:06.725Z,17.97
2023-05-20T08:19:06.787Z,18.00
2023-05-20T08:20:06.739Z,17.93
2023-05-20T08:21:06.772Z,18.00
2023-05-20T08:22:06.799Z,17.99
2023-05-20T08:23:06.821Z,17.95
2023-05-20T08:24:06.848Z,18.02
2023-05-20T08:25:06.879Z,18.12
2023-05-20T08:26:06.900Z,18.08
2023-05-20T08:27:06.935Z,18.03
2023-05-20T08:28:06.958Z,18.08
2023-05-20T08:29:06.984Z,18.10
2023-05-20T08:30:07.015Z,17.92
2023-05-20T08:31:07.083Z,18.00
2023-05-20T08:32:07.084Z,17.96
2023-05-20T08:33:07.141Z,17.96
2023-05-20T08:34:07.124Z,17.95
2023-05-20T08:35:07.157Z,17.99
2023-05-20T08:36:07.180Z,17.95
2023-05-20T08:37:07.208Z,17.99
2023-05-20T08:38:07.232Z,18.05
2023-05-20T08:39:07.261Z,18.26
2023-05-20T08:40:07.289Z,18.33
2023-05-20T08:41:07.325Z,18.32
2023-05-20T08:42:07.344Z,18.35
2023-05-20T08:43:07.369Z,18.41
2023-05-20T08:44:07.401Z,18.39
2023-05-20T08:45:07.431Z,18.41
2023-05-20T08:46:07.481Z,18.47
2023-05-20T08:47:07.492Z,18.50
2023-05-20T08:48:07.591Z,18.45
2023-05-20T08:49:07.542Z,18.48
2023-05-20T08:50:07.563Z,18.50
2023-05-20T08:51:07.596Z,18.48
2023-05-20T08:52:07.623Z,18.41
2023-05-20T08:53:07.660Z,18.45
2023-05-20T08:54:07.700Z,18.47
2023-05-20T08:55:07.716Z,18.55
2023-05-20T08:56:07.763Z,18.51
2023-05-20T08:57:07.769Z,18.58
2023-05-20T08:58:07.802Z,18.75
2023-05-20T08:59:07.822Z,18.76
2023-05-20T09:00:07.874Z,18.88
2023-05-20T09:01:07.892Z,18.84
2023-05-20T09:02:07.942Z,18.91
2023-05-20T09:03:07.986Z,18.75
2023-05-20T09:04:07.961Z,18.75
2023-05-20T09:05:08.005Z,18.67
2023-05-20T09:06:08.028Z,18.52
2023-05-20T09:07:08.047Z,18.51
2023-05-20T09:08:08.081Z,18.55
2023-05-20T09:09:08.119Z,18.62
2023-05-20T09:10:08.168Z,18.69
2023-05-20T09:11:08.170Z,18.78
2023-05-20T09:12:08.188Z,18.76
2023-05-20T09:13:08.229Z,18.82
2023-05-20T09:14:08.245Z,18.92
2023-05-20T09:15:08.281Z,19.00
2023-05-20T09:16:08.343Z,19.04
2023-05-20T09:17:08.405Z,19.18
2023-05-20T09:18:08.390Z,19.11
2023-05-20T09:19:08.529Z,19.21
2023-05-20T09:20:08.419Z,19.16
2023-05-20T09:21:08.513Z,19.00
2023-05-20T09:22:08.487Z,18.95
2023-05-20T09:23:08.495Z,18.87
2023-05-20T09:24:08.540Z,18.88
2023-05-20T09:25:08.669Z,18.92
2023-05-20T09:26:08.608Z,18.82
2023-05-20T09:27:08.606Z,18.81
2023-05-20T09:28:08.707Z,18.82
2023-05-20T09:29:08.739Z,18.94
2023-05-20T09:30:08.777Z,19.08
2023-05-20T09:31:08.723Z,19.06
2023-05-20T09:32:08.873Z,19.04
2023-05-20T09:33:08.806Z,19.21
2023-05-20T09:35:41.017Z,19.43
2023-05-20T09:36:40.492Z,19.46
2023-05-20T09:38:33.493Z,19.56
2023-05-20T09:39:33.450Z,19.58
2023-05-20T09:41:37.971Z,19.55
2023-05-20T09:42:37.508Z,19.56
2023-05-20T09:44:41.564Z,19.65
2023-05-20T09:45:41.587Z,19.66
2023-05-20T09:47:35.571Z,19.62
2023-05-20T09:48:34.724Z,19.55
2023-05-20T09:50:38.797Z,19.59
2023-05-20T09:51:38.769Z,19.66
2023-05-20T09:53:43.313Z,19.71
2023-05-20T09:54:42.817Z,19.84
2023-05-20T09:56:46.868Z,19.88
2023-05-20T09:57:46.867Z,19.96
2023-05-20T10:00:44.367Z,19.77
2023-05-20T10:01:44.037Z,19.69
2023-05-20T10:03:48.214Z,19.58
2023-05-20T10:04:48.063Z,19.55
2023-05-20T10:06:52.591Z,19.51
2023-05-20T10:07:52.113Z,19.56
2023-05-20T10:09:45.269Z,19.68
2023-05-20T10:10:45.267Z,19.71
2023-05-20T10:11:45.307Z,19.73
2023-05-20T10:12:45.318Z,19.69
2023-05-20T10:13:45.345Z,19.69
2023-05-20T10:14:45.372Z,19.83
2023-05-20T10:15:45.445Z,19.92
2023-05-20T10:16:45.431Z,20.05
2023-05-20T10:17:45.474Z,20.13
2023-05-20T10:18:45.514Z,20.13
2023-05-20T10:19:45.518Z,20.23
2023-05-20T10:20:45.541Z,20.36
2023-05-20T10:21:45.563Z,20.29
2023-05-20T10:22:45.597Z,20.32
2023-05-20T10:23:45.628Z,20.11
2023-05-20T10:24:45.666Z,20.13
2023-05-20T10:25:45.682Z,20.14
2023-05-20T10:26:45.712Z,20.11
2023-05-20T10:27:45.743Z,20.14
2023-05-20T10:28:45.765Z,20.10
2023-05-20T10:29:45.798Z,20.06
2023-05-20T10:30:45.819Z,20.11
2023-05-20T10:31:45.845Z,20.03
2023-05-20T10:32:45.999Z,20.01
2023-05-20T10:33:45.969Z,20.01
2023-05-20T10:34:45.933Z,19.98
2023-05-20T10:35:45.961Z,20.08
2023-05-20T10:36:45.990Z,20.16
2023-05-20T10:37:46.018Z,20.31
2023-05-20T10:38:46.048Z,20.16
2023-05-20T10:39:46.078Z,20.32
2023-05-20T10:40:46.095Z,20.29
2023-05-20T10:41:46.156Z,20.32
2023-05-20T10:42:46.233Z,20.36
2023-05-20T10:43:46.185Z,20.38
2023-05-20T10:44:46.223Z,20.36
2023-05-20T10:45:46.234Z,20.51
2023-05-20T10:47:46.384Z,20.18
2023-05-20T10:48:46.419Z,20.28
2023-05-20T10:49:46.351Z,20.26
2023-05-20T10:50:46.380Z,20.18
2023-05-20T10:51:46.406Z,20.20
2023-05-20T10:52:46.431Z,20.17
2023-05-20T10:53:46.469Z,20.24
2023-05-20T10:54:47.261Z,20.39
2023-05-20T10:55:46.519Z,20.39
2023-05-20T10:56:46.540Z,20.55
2023-05-20T10:57:46.571Z,20.61
2023-05-20T10:58:46.598Z,20.61
2023-05-20T10:59:46.627Z,20.61
2023-05-20T11:00:47.639Z,20.55
2023-05-20T11:01:46.679Z,20.72
2023-05-20T11:02:46.768Z,20.84
2023-05-20T11:03:46.857Z,20.97
2023-05-20T11:04:46.785Z,20.95
2023-05-20T11:05:46.799Z,20.98
2023-05-20T11:06:46.829Z,21.07
2023-05-20T11:07:46.859Z,21.07
2023-05-20T11:08:46.900Z,21.06
2023-05-20T11:09:46.923Z,21.04
2023-05-20T11:10:46.951Z,20.92
2023-05-20T11:11:46.973Z,20.79
2023-05-20T11:12:47.075Z,20.89
2023-05-20T11:13:47.031Z,20.88
2023-05-20T11:14:47.064Z,20.73
2023-05-20T11:15:47.086Z,20.70
2023-05-20T11:16:47.170Z,20.70
2023-05-20T11:17:47.190Z,20.76
2023-05-20T11:18:47.224Z,20.87
2023-05-20T11:19:47.213Z,20.97
2023-05-20T11:20:47.312Z,20.95
2023-05-20T11:21:47.264Z,20.92
2023-05-20T11:22:47.289Z,20.72
2023-05-20T11:23:47.330Z,20.70
2023-05-20T11:24:47.352Z,20.69
2023-05-20T11:25:47.377Z,20.77
2023-05-20T11:26:47.412Z,20.73
2023-05-20T11:27:47.443Z,20.57
2023-05-20T11:28:47.468Z,20.54
2023-05-20T11:29:47.493Z,20.50
2023-05-20T11:30:47.524Z,20.48
2023-05-20T11:31:47.606Z,20.58
2023-05-20T11:32:47.592Z,20.61
2023-05-20T11:33:47.608Z,20.67
2023-05-20T11:34:47.636Z,20.58
2023-05-20T11:35:47.680Z,20.58
2023-05-20T11:36:47.699Z,20.73
2023-05-20T11:37:47.735Z,20.84
2023-05-20T11:38:47.764Z,20.58
2023-05-20T11:39:47.791Z,20.55
2023-05-20T11:40:51.219Z,20.39
2023-05-20T11:41:47.844Z,20.41
2023-05-20T11:42:47.874Z,20.50
2023-05-20T11:43:47.896Z,20.42
2023-05-20T11:44:47.937Z,20.28
2023-05-20T11:45:47.978Z,20.39
2023-05-20T11:46:47.983Z,20.48
2023-05-20T11:47:48.053Z,20.39
2023-05-20T11:48:48.049Z,20.43
2023-05-20T11:49:48.082Z,20.54
2023-05-20T11:50:48.141Z,20.58
2023-05-20T11:51:48.133Z,20.70
2023-05-20T11:52:48.161Z,20.82
2023-05-20T11:53:48.193Z,20.87
2023-05-20T11:54:48.222Z,20.89
2023-05-20T11:55:48.252Z,20.88
2023-05-20T11:56:48.276Z,20.82
2023-05-20T11:57:48.305Z,20.73
2023-05-20T11:58:48.337Z,20.57
2023-05-20T11:59:48.374Z,20.55
2023-05-20T12:00:51.629Z,20.55
2023-05-20T12:01:48.426Z,20.51
2023-05-20T12:02:48.499Z,20.43
2023-05-20T12:03:48.645Z,20.48
2023-05-20T12:04:48.557Z,20.41
2023-05-20T12:05:48.560Z,20.48
2023-05-20T12:06:48.575Z,20.43
2023-05-20T12:07:48.634Z,20.48
2023-05-20T12:08:48.634Z,20.48
2023-05-20T12:09:48.665Z,20.39
2023-05-20T12:10:48.689Z,20.28
2023-05-20T12:11:48.722Z,20.13
2023-05-20T12:12:48.744Z,20.14
2023-05-20T12:13:48.779Z,20.10
2023-05-20T12:14:48.814Z,20.16
2023-05-20T12:15:48.971Z,20.14
2023-05-20T12:16:48.871Z,20.11
2023-05-20T12:17:48.941Z,20.20
2023-05-20T12:18:49.040Z,20.17
2023-05-20T12:19:48.951Z,20.24
2023-05-20T12:20:48.980Z,20.20
2023-05-20T12:21:49.010Z,20.26
2023-05-20T12:22:49.040Z,20.14
2023-05-20T12:23:49.069Z,20.20
2023-05-20T12:24:49.127Z,20.21
2023-05-20T12:25:49.132Z,20.13
2023-05-20T12:26:49.162Z,20.28
2023-05-20T12:27:49.184Z,20.33
2023-05-20T12:28:49.210Z,20.41
2023-05-20T12:29:49.241Z,20.39
2023-05-20T12:30:49.276Z,20.33
2023-05-20T12:31:49.355Z,20.36
2023-05-20T12:32:49.371Z,20.29
2023-05-20T12:33:49.370Z,20.17
2023-05-20T12:34:49.384Z,20.17
2023-05-20T12:35:49.424Z,20.24
2023-05-20T12:36:49.444Z,20.32
2023-05-20T12:37:49.476Z,20.36
2023-05-20T12:38:49.502Z,20.36
2023-05-20T12:39:49.533Z,20.48
2023-05-20T12:40:49.568Z,20.51
2023-05-20T12:41:49.584Z,20.58
2023-05-20T12:42:49.622Z,20.58
2023-05-20T12:43:49.645Z,20.58
2023-05-20T12:44:49.684Z,20.54
2023-05-20T12:45:49.724Z,20.51
2023-05-20T12:46:49.752Z,20.50
2023-05-20T12:47:49.780Z,20.48
2023-05-20T12:48:49.865Z,20.29
2023-05-20T12:49:49.815Z,20.16
2023-05-20T12:50:49.850Z,20.14
2023-05-20T12:51:49.890Z,20.05
2023-05-20T12:52:49.908Z,20.16
2023-05-20T12:53:49.939Z,20.02
2023-05-20T12:54:49.965Z,20.02
2023-05-20T12:55:49.993Z,20.11
2023-05-20T12:56:50.031Z,20.13
2023-05-20T12:57:50.071Z,20.35
2023-05-20T12:58:50.081Z,20.39
2023-05-20T12:59:50.115Z,20.48
2023-05-20T13:00:50.162Z,20.43
2023-05-20T13:01:50.168Z,20.43
2023-05-20T13:02:50.267Z,20.29
2023-05-20T13:03:50.250Z,20.26
2023-05-20T13:04:50.252Z,20.20
2023-05-20T13:05:50.281Z,20.28
2023-05-20T13:06:50.313Z,20.28
2023-05-20T13:07:50.356Z,20.11
2023-05-20T13:08:50.372Z,20.28
2023-05-20T13:09:50.397Z,20.26
2023-05-20T13:10:50.429Z,20.31
2023-05-20T13:11:50.453Z,20.38
2023-05-20T13:12:50.486Z,20.47
2023-05-20T13:13:50.515Z,20.52
2023-05-20T13:14:50.547Z,20.57
2023-05-20T13:15:50.574Z,20.51
2023-05-20T13:16:50.641Z,20.52
2023-05-20T13:17:50.662Z,20.51
2023-05-20T13:18:50.713Z,20.52
2023-05-20T13:19:50.696Z,20.51
2023-05-20T13:20:50.716Z,20.52
2023-05-20T13:21:50.744Z,20.58
2023-05-20T13:22:50.768Z,20.58
2023-05-20T13:23:50.815Z,20.39
2023-05-20T13:24:50.829Z,20.42